createdAt,value
2023-01-04T00:01:36.174Z,38.00
2023-01-04T00:04:04.490Z,37.20
2023-01-04T00:06:32.689Z,37.80
2023-01-04T00:09:02.077Z,38.20
2023-01-04T00:11:30.124Z,38.00
2023-01-04T00:13:59.612Z,37.90
2023-01-04T00:16:30.329Z,37.90
2023-01-04T00:18:58.722Z,37.40
2023-01-04T00:21:29.074Z,38.50
2023-01-04T00:23:59.313Z,38.00
2023-01-04T00:26:32.184Z,38.50
2023-01-04T00:29:03.333Z,38.40
2023-01-04T00:31:32.337Z,38.70
2023-01-04T00:34:02.650Z,38.20
2023-01-04T00:36:31.611Z,39.00
2023-01-04T00:39:11.211Z,39.00
2023-01-04T00:42:00.210Z,38.90
2023-01-04T00:44:29.687Z,39.50
2023-01-04T00:46:58.422Z,39.70
2023-01-04T00:49:27.053Z,39.20
2023-01-04T00:51:55.400Z,39.60
2023-01-04T00:54:24.143Z,39.40
2023-01-04T00:56:53.631Z,39.30
2023-01-04T00:59:22.917Z,39.50
2023-01-04T01:01:52.406Z,39.50
2023-01-04T01:04:23.468Z,39.70
2023-01-04T01:06:52.525Z,39.70
2023-01-04T01:09:22.685Z,39.70
2023-01-04T01:11:52.845Z,39.40
2023-01-04T01:14:23.986Z,40.00
2023-01-04T01:16:56.524Z,39.80
2023-01-04T01:19:26.334Z,39.70
2023-01-04T01:21:54.459Z,39.90
2023-01-04T01:24:22.477Z,39.80
2023-01-04T01:26:50.563Z,39.90
2023-01-04T01:29:19.845Z,39.30
2023-01-04T01:31:48.073Z,40.10
2023-01-04T01:34:16.242Z,40.30
2023-01-04T01:36:44.390Z,39.50
2023-01-04T01:39:12.560Z,40.10
2023-01-04T01:41:40.757Z,40.10
2023-01-04T01:45:01.460Z,40.40
2023-01-04T01:47:39.137Z,39.90
2023-01-04T01:50:20.308Z,40.80
2023-01-04T01:52:49.545Z,40.70
2023-01-04T01:55:18.066Z,41.00
2023-01-04T01:57:48.241Z,41.00
2023-01-04T02:00:18.865Z,41.00
2023-01-04T02:02:56.674Z,40.70
2023-01-04T02:05:27.037Z,41.00
2023-01-04T02:07:55.969Z,41.00
2023-01-04T02:10:24.884Z,41.20
2023-01-04T02:12:53.711Z,40.90
2023-01-04T02:15:28.529Z,41.40
2023-01-04T02:18:05.470Z,41.60
2023-01-04T02:20:46.009Z,41.00
2023-01-04T02:24:08.954Z,40.70
2023-01-04T02:27:44.430Z,40.90
2023-01-04T02:31:01.826Z,41.00
2023-01-04T02:33:44.352Z,40.90
2023-01-04T02:36:22.697Z,41.00
2023-01-04T02:39:09.230Z,41.20
2023-01-04T02:41:47.526Z,40.70
2023-01-04T02:44:36.607Z,40.90
2023-01-04T02:47:10.766Z,41.00
2023-01-04T02:50:04.292Z,41.00
2023-01-04T02:52:33.768Z,41.10
2023-01-04T02:55:06.085Z,41.00
2023-01-04T02:57:49.239Z,41.00
2023-01-04T03:00:35.033Z,41.10
2023-01-04T03:03:34.846Z,41.00
2023-01-04T03:06:17.910Z,41.30
2023-01-04T03:08:58.058Z,41.70
2023-01-04T03:11:54.780Z,41.20
2023-01-04T03:14:32.832Z,40.90
2023-01-04T03:17:03.687Z,41.10
2023-01-04T03:19:48.035Z,41.60
2023-01-04T03:22:35.911Z,41.90
2023-01-04T03:25:23.908Z,41.70
2023-01-04T03:28:12.439Z,41.70
2023-01-04T03:31:12.778Z,41.80
2023-01-04T03:33:58.764Z,42.00
2023-01-04T03:36:51.694Z,42.30
2023-01-04T03:39:50.144Z,42.30
2023-01-04T03:42:42.282Z,42.70
2023-01-04T03:45:36.362Z,42.30
2023-01-04T03:48:31.826Z,42.00
2023-01-04T03:51:08.885Z,42.30
2023-01-04T03:53:43.190Z,42.20
2023-01-04T03:56:13.589Z,42.20
2023-01-04T03:58:42.002Z,42.00
2023-01-04T04:01:10.264Z,42.30
2023-01-04T04:03:56.259Z,42.10
2023-01-04T04:06:42.007Z,42.20
2023-01-04T04:09:09.988Z,42.30
2023-01-04T04:11:39.326Z,41.70
2023-01-04T04:14:07.353Z,42.40
2023-01-04T04:16:35.741Z,42.20
2023-01-04T04:19:08.588Z,42.20
2023-01-04T04:21:37.394Z,42.10
2023-01-04T04:24:06.632Z,42.10
2023-01-04T04:26:34.701Z,42.30
2023-01-04T04:29:03.999Z,42.00
2023-01-04T04:31:31.998Z,42.40
2023-01-04T04:34:00.064Z,42.50
2023-01-04T04:36:28.229Z,42.40
2023-01-04T04:38:56.214Z,42.10
2023-01-04T04:41:38.325Z,42.10
2023-01-04T04:44:09.436Z,42.30
2023-01-04T04:46:38.267Z,42.30
2023-01-04T04:49:07.491Z,42.40
2023-01-04T04:51:36.560Z,42.10
2023-01-04T04:54:05.386Z,42.30
2023-01-04T04:56:33.502Z,42.50
2023-01-04T04:59:01.450Z,42.10
2023-01-04T05:01:31.451Z,42.30
2023-01-04T05:04:00.077Z,42.30
2023-01-04T05:06:29.211Z,42.20
2023-01-04T05:08:57.241Z,42.30
2023-01-04T05:11:39.353Z,42.10
2023-01-04T05:14:07.532Z,42.00
2023-01-04T05:16:37.112Z,42.80
2023-01-04T05:19:05.778Z,42.60
2023-01-04T05:21:34.024Z,42.00
2023-01-04T05:24:02.020Z,42.40
2023-01-04T05:26:30.138Z,42.70
2023-01-04T05:28:58.219Z,42.70
2023-01-04T05:31:26.292Z,42.60
2023-01-04T05:33:55.741Z,42.50
2023-01-04T05:36:23.900Z,42.60
2023-01-04T05:38:51.965Z,42.30
2023-01-04T05:41:37.555Z,43.00
2023-01-04T05:44:05.631Z,43.00
2023-01-04T05:46:33.753Z,41.20
2023-01-04T05:49:03.203Z,38.90
2023-01-04T05:51:31.267Z,39.50
2023-01-04T05:53:59.274Z,36.70
2023-01-04T05:56:27.316Z,36.80
2023-01-04T05:58:55.245Z,38.60
2023-01-04T06:01:23.350Z,39.00
2023-01-04T06:03:51.539Z,39.30
2023-01-04T06:06:20.978Z,40.30
2023-01-04T06:08:49.007Z,40.10
2023-01-04T06:11:19.176Z,39.60
2023-01-04T06:13:50.642Z,39.20
2023-01-04T06:16:18.675Z,39.70
2023-01-04T06:18:46.643Z,39.40
2023-01-04T06:21:14.643Z,39.80
2023-01-04T06:23:44.007Z,39.80
2023-01-04T06:26:12.077Z,40.10
2023-01-04T06:28:41.279Z,39.80
2023-01-04T06:31:11.670Z,40.20
2023-01-04T06:33:40.730Z,40.60
2023-01-04T06:36:20.130Z,40.30
2023-01-04T06:38:50.307Z,40.20
2023-01-04T06:41:18.508Z,40.30
2023-01-04T06:43:46.756Z,40.40
2023-01-04T06:46:14.852Z,40.60
2023-01-04T06:48:43.219Z,40.40
2023-01-04T06:51:11.592Z,40.50
2023-01-04T06:53:39.708Z,40.60
2023-01-04T06:56:09.996Z,40.70
2023-01-04T06:58:38.431Z,40.50
2023-01-04T07:01:07.629Z,40.60
2023-01-04T07:03:35.944Z,40.10
2023-01-04T07:06:06.242Z,40.70
2023-01-04T07:08:34.626Z,40.70
2023-01-04T07:11:02.841Z,40.50
2023-01-04T07:13:32.411Z,40.50
2023-01-04T07:16:00.428Z,40.40
2023-01-04T07:18:28.570Z,40.40
2023-01-04T07:20:56.852Z,40.40
2023-01-04T07:23:24.972Z,40.30
2023-01-04T07:25:53.115Z,40.50
2023-01-04T07:28:35.079Z,40.70
2023-01-04T07:31:08.160Z,40.50
2023-01-04T07:33:36.303Z,40.30
2023-01-04T07:36:07.142Z,40.70
2023-01-04T07:38:36.161Z,40.80
2023-01-04T07:41:04.690Z,40.60
2023-01-04T07:43:32.779Z,40.30
2023-01-04T07:46:00.870Z,40.10
2023-01-04T07:48:30.333Z,40.60
2023-01-04T07:50:58.349Z,40.70
2023-01-04T07:53:26.425Z,40.70
2023-01-04T07:55:59.045Z,40.50
2023-01-04T07:58:27.332Z,40.30
2023-01-04T08:00:55.650Z,40.20
2023-01-04T08:03:23.674Z,40.40
2023-01-04T08:05:52.959Z,39.80
2023-01-04T08:08:20.941Z,40.30
2023-01-04T08:10:48.908Z,40.10
2023-01-04T08:13:16.924Z,40.40
2023-01-04T08:15:45.028Z,40.10
2023-01-04T08:18:13.068Z,40.40
2023-01-04T08:20:41.099Z,40.10
2023-01-04T08:23:10.410Z,40.00
2023-01-04T08:25:38.405Z,40.20
2023-01-04T08:28:06.596Z,40.10
2023-01-04T08:30:34.736Z,40.40
2023-01-04T08:33:02.749Z,40.10
2023-01-04T08:35:30.780Z,40.20
2023-01-04T08:38:20.154Z,40.10
2023-01-04T08:40:59.619Z,39.60
2023-01-04T08:43:29.988Z,40.00
2023-01-04T08:45:59.136Z,39.30
2023-01-04T08:48:27.245Z,38.80
2023-01-04T08:50:55.307Z,39.80
2023-01-04T08:53:23.255Z,37.60
2023-01-04T08:55:54.192Z,40.00
2023-01-04T08:58:23.112Z,39.30
2023-01-04T09:00:51.296Z,40.00
2023-01-04T09:03:19.485Z,39.80
2023-01-04T09:05:47.646Z,39.20
2023-01-04T09:08:15.633Z,39.50
2023-01-04T09:10:43.589Z,39.70
2023-01-04T09:13:12.961Z,39.50
2023-01-04T09:15:40.941Z,39.20
2023-01-04T09:18:31.970Z,39.50
2023-01-04T09:21:01.270Z,39.70
2023-01-04T09:23:30.289Z,39.50
2023-01-04T09:25:58.220Z,39.50
2023-01-04T09:28:27.911Z,39.70
2023-01-04T09:30:55.913Z,39.50
2023-01-04T09:33:41.320Z,39.40
2023-01-04T09:36:15.608Z,39.30
2023-01-04T09:38:44.109Z,39.30
2023-01-04T09:41:22.215Z,39.40
2023-01-04T09:43:54.102Z,39.20
2023-01-04T09:46:34.147Z,38.80
2023-01-04T09:49:18.201Z,39.10
2023-01-04T09:51:58.160Z,38.80
2023-01-04T09:54:41.152Z,38.20
2023-01-04T09:57:21.152Z,38.70
2023-01-04T09:59:55.744Z,38.90
2023-01-04T10:02:32.465Z,38.90
2023-01-04T10:05:03.274Z,38.70
2023-01-04T10:07:33.914Z,38.80
2023-01-04T10:10:02.137Z,38.70
2023-01-04T10:12:45.126Z,38.60
2023-01-04T10:15:30.686Z,38.50
2023-01-04T10:21:32.239Z,38.60
2023-01-04T10:24:26.404Z,38.10
2023-01-04T10:27:01.854Z,38.70
2023-01-04T10:29:48.372Z,38.40
2023-01-04T10:32:25.414Z,38.20
2023-01-04T10:34:54.698Z,38.50
2023-01-04T10:37:27.913Z,38.30
2023-01-04T10:39:57.897Z,38.60
2023-01-04T10:42:35.050Z,38.20
2023-01-04T10:45:17.520Z,37.70
2023-01-04T10:47:58.538Z,38.30
2023-01-04T10:50:34.610Z,38.50
2023-01-04T10:53:06.974Z,38.20
2023-01-04T10:55:41.783Z,38.10
2023-01-04T10:58:36.846Z,38.30
2023-01-04T11:01:09.597Z,38.00
2023-01-04T11:03:47.608Z,38.20
2023-01-04T11:06:19.054Z,38.00
2023-01-04T11:08:52.344Z,38.20
2023-01-04T11:11:26.159Z,38.20
2023-01-04T11:13:54.597Z,38.10
2023-01-04T11:16:22.780Z,38.30
2023-01-04T11:18:52.774Z,38.10
2023-01-04T11:21:27.593Z,38.10
2023-01-04T11:24:08.258Z,37.90
2023-01-04T11:26:49.810Z,37.90
2023-01-04T11:29:31.683Z,38.00
2023-01-04T11:32:03.578Z,38.20
2023-01-04T11:34:53.513Z,38.20
2023-01-04T11:37:33.333Z,38.10
2023-01-04T11:40:24.945Z,38.10
2023-01-04T11:43:12.040Z,37.80
2023-01-04T11:45:40.062Z,37.60
2023-01-04T11:48:15.844Z,37.80
2023-01-04T11:50:47.245Z,37.60
2023-01-04T11:53:27.404Z,37.50
2023-01-04T11:56:15.337Z,37.70
2023-01-04T11:58:45.302Z,37.50
2023-01-04T12:01:25.759Z,37.50
2023-01-04T12:03:53.860Z,37.50
2023-01-04T12:06:33.837Z,37.60
2023-01-04T12:09:01.890Z,37.70
2023-01-04T12:11:33.072Z,37.50
2023-01-04T12:14:01.684Z,37.20
2023-01-04T12:16:47.778Z,37.90
2023-01-04T12:19:17.613Z,37.90
2023-01-04T12:21:50.884Z,37.50
2023-01-04T12:24:22.821Z,38.00
2023-01-04T12:26:52.076Z,37.90
2023-01-04T12:29:45.629Z,38.10
2023-01-04T12:32:41.127Z,38.00
2023-01-04T12:36:02.657Z,38.10
2023-01-04T12:39:20.918Z,38.10
2023-01-04T12:42:15.729Z,38.30
2023-01-04T12:45:23.470Z,38.00
2023-01-04T12:48:11.939Z,37.60
2023-01-04T12:51:37.216Z,37.60
2023-01-04T12:54:31.628Z,37.70
2023-01-04T12:57:25.015Z,37.50
2023-01-04T12:59:58.986Z,37.50
2023-01-04T13:02:29.929Z,35.50
2023-01-04T13:05:43.826Z,36.50
2023-01-04T13:07:51.217Z,37.10
2023-01-04T13:10:30.433Z,36.90
2023-01-04T13:13:29.799Z,37.40
2023-01-04T13:16:16.664Z,37.50
2023-01-04T13:18:50.281Z,37.60
2023-01-04T13:21:26.641Z,37.00
2023-01-04T13:23:57.506Z,37.10
2023-01-04T13:26:36.660Z,36.10
2023-01-04T13:29:13.520Z,35.60
2023-01-04T13:31:51.081Z,36.50
2023-01-04T13:34:27.495Z,36.50
2023-01-04T13:37:09.055Z,36.50
2023-01-04T13:39:38.222Z,37.20
2023-01-04T13:42:15.440Z,37.20
2023-01-04T13:45:20.446Z,36.90
2023-01-04T13:47:52.935Z,37.20
2023-01-04T13:50:35.949Z,37.20
2023-01-04T13:53:08.502Z,38.20
2023-01-04T13:55:39.093Z,37.20
2023-01-04T13:58:18.704Z,37.20
2023-01-04T14:00:51.128Z,37.10
2023-01-04T14:03:41.749Z,37.20
2023-01-04T14:06:18.005Z,37.00
2023-01-04T14:09:01.831Z,37.00
2023-01-04T14:11:51.901Z,37.20
2023-01-04T14:14:46.992Z,37.00
2023-01-04T14:17:22.324Z,36.80
2023-01-04T14:19:54.265Z,37.00
2023-01-04T14:22:38.322Z,36.80
2023-01-04T14:25:44.767Z,37.10
2023-01-04T14:28:46.870Z,36.90
2023-01-04T14:31:36.647Z,37.10
2023-01-04T14:34:14.417Z,37.00
2023-01-04T14:36:43.492Z,36.60
2023-01-04T14:39:30.768Z,36.60
2023-01-04T14:42:00.029Z,36.40
2023-01-04T14:44:31.489Z,37.00
2023-01-04T14:47:06.077Z,37.20
2023-01-04T14:49:34.482Z,36.60
2023-01-04T14:52:05.190Z,36.70
2023-01-04T14:54:35.136Z,37.20
2023-01-04T14:57:03.961Z,37.10
2023-01-04T14:59:32.383Z,36.80
2023-01-04T15:02:01.884Z,37.20
2023-01-04T15:04:30.138Z,36.80
2023-01-04T15:07:01.832Z,36.70
2023-01-04T15:09:30.694Z,36.10
2023-01-04T15:11:58.698Z,36.70
2023-01-04T15:14:26.796Z,37.70
2023-01-04T15:16:54.790Z,36.70
2023-01-04T15:19:24.166Z,36.70
2023-01-04T15:21:52.145Z,36.90
2023-01-04T15:24:20.185Z,36.20
2023-01-04T15:26:49.034Z,36.60
2023-01-04T15:29:17.039Z,37.10
2023-01-04T15:31:45.117Z,37.20
2023-01-04T15:34:15.318Z,37.10
2023-01-04T15:36:44.898Z,37.20
2023-01-04T15:39:14.834Z,37.20
2023-01-04T15:42:00.516Z,37.20
2023-01-04T15:44:29.055Z,37.20
2023-01-04T15:46:59.184Z,37.00
2023-01-04T15:49:29.823Z,36.60
2023-01-04T15:51:59.338Z,37.30
2023-01-04T15:54:27.757Z,37.40
2023-01-04T15:56:56.441Z,37.10
2023-01-04T15:59:25.628Z,37.40
2023-01-04T16:01:53.749Z,37.10
2023-01-04T16:04:21.843Z,37.60
2023-01-04T16:06:49.874Z,37.70
2023-01-04T16:09:19.265Z,38.20
2023-01-04T16:12:04.968Z,37.80
2023-01-04T16:14:32.934Z,38.80
2023-01-04T16:17:01.217Z,39.90
2023-01-04T16:19:32.122Z,40.70
2023-01-04T16:22:00.256Z,40.60
2023-01-04T16:25:08.729Z,40.00
2023-01-04T16:27:17.643Z,39.50
2023-01-04T16:29:45.685Z,39.40
2023-01-04T16:32:13.710Z,39.30
2023-01-04T16:34:41.874Z,38.80
2023-01-04T16:37:09.829Z,38.60
2023-01-04T16:42:27.185Z,39.10
2023-01-04T16:44:55.107Z,39.10
2023-01-04T16:47:23.197Z,39.40
2023-01-04T16:49:54.701Z,39.80
2023-01-04T16:52:26.679Z,39.70
2023-01-04T16:54:55.946Z,40.20
2023-01-04T16:57:24.607Z,40.40
2023-01-04T16:59:52.574Z,40.30
2023-01-04T17:02:20.624Z,40.30
2023-01-04T17:04:54.319Z,40.30
2023-01-04T17:07:22.453Z,40.60
2023-01-04T17:09:50.871Z,40.30
2023-01-04T17:17:57.392Z,40.50
2023-01-04T17:20:25.437Z,40.30
2023-01-04T17:22:53.452Z,40.50
2023-01-04T17:25:21.473Z,40.40
2023-01-04T17:27:50.784Z,40.60
2023-01-04T17:30:18.838Z,40.50
2023-01-04T17:32:46.871Z,40.70
2023-01-04T17:35:14.942Z,40.40
2023-01-04T17:37:42.894Z,40.40
2023-01-04T17:40:19.042Z,40.50
2023-01-04T17:42:52.222Z,39.90
2023-01-04T17:45:20.230Z,40.50
2023-01-04T17:47:48.303Z,40.30
2023-01-04T17:50:17.325Z,40.30
2023-01-04T17:52:45.328Z,40.50
2023-01-04T17:55:13.333Z,40.50
2023-01-04T18:00:14.875Z,40.40
2023-01-04T18:02:43.359Z,40.40
2023-01-04T18:05:11.940Z,40.70
2023-01-04T18:07:39.893Z,40.50
2023-01-04T18:10:20.604Z,41.00
2023-01-04T18:12:54.913Z,40.60
2023-01-04T18:15:24.205Z,40.70
2023-01-04T18:17:52.166Z,41.00
2023-01-04T18:20:24.939Z,41.30
2023-01-04T18:22:53.249Z,41.10
2023-01-04T18:25:21.340Z,41.40
2023-01-04T18:27:49.426Z,40.90
2023-01-04T18:30:17.560Z,41.40
2023-01-04T18:32:46.978Z,41.30
2023-01-04T18:35:14.886Z,41.00
2023-01-04T18:37:46.111Z,41.50
2023-01-04T18:40:14.548Z,41.60
2023-01-04T18:42:47.890Z,41.30
2023-01-04T18:45:16.609Z,41.20
2023-01-04T18:47:47.943Z,41.50
2023-01-04T18:50:16.268Z,41.10
2023-01-04T18:52:44.552Z,41.80
2023-01-04T18:55:12.655Z,41.30
2023-01-04T18:57:40.944Z,41.60
2023-01-04T19:00:11.496Z,41.80
2023-01-04T19:02:39.605Z,41.70
2023-01-04T19:05:10.379Z,41.90
2023-01-04T19:07:40.155Z,41.30
2023-01-04T19:10:09.574Z,41.90
2023-01-04T19:12:38.733Z,41.30
2023-01-04T19:15:09.174Z,41.50
2023-01-04T19:17:37.371Z,41.70
2023-01-04T19:20:06.503Z,41.80
2023-01-04T19:22:35.913Z,41.30
2023-01-04T19:25:04.139Z,40.80
2023-01-04T19:27:32.112Z,41.30
2023-01-04T19:30:00.205Z,41.60
2023-01-04T19:32:33.189Z,41.20
2023-01-04T19:35:01.516Z,41.20
2023-01-04T19:37:30.265Z,40.70
2023-01-04T19:39:59.679Z,40.90
2023-01-04T19:42:27.829Z,40.70
2023-01-04T19:44:55.799Z,40.50
2023-01-04T19:47:23.848Z,40.10
2023-01-04T19:49:51.818Z,40.50
2023-01-04T19:52:19.821Z,40.40
2023-01-04T19:54:47.799Z,40.70
2023-01-04T19:57:17.094Z,40.70
2023-01-04T19:59:45.103Z,40.00
2023-01-04T20:02:13.327Z,40.20
2023-01-04T20:04:41.562Z,40.50
2023-01-04T20:07:09.508Z,40.20
2023-01-04T20:09:37.596Z,40.30
2023-01-04T20:12:07.147Z,40.70
2023-01-04T20:14:36.584Z,40.20
2023-01-04T20:17:04.598Z,40.30
2023-01-04T20:19:32.643Z,40.30
2023-01-04T20:22:00.602Z,40.50
2023-01-04T20:24:28.549Z,40.40
2023-01-04T20:26:56.493Z,40.30
2023-01-04T20:29:24.476Z,40.20
2023-01-04T20:31:53.813Z,40.20
2023-01-04T20:34:21.818Z,40.30
2023-01-04T20:36:49.856Z,40.60
2023-01-04T20:39:17.831Z,39.90
2023-01-04T20:41:59.772Z,40.00
2023-01-04T20:44:27.937Z,40.00
2023-01-04T20:46:57.198Z,40.10
2023-01-04T20:49:25.270Z,39.60
2023-01-04T20:51:53.331Z,39.60
2023-01-04T20:54:21.394Z,40.20
2023-01-04T20:56:49.414Z,39.70
2023-01-04T20:59:17.738Z,40.20
2023-01-04T21:01:45.895Z,40.00
2023-01-04T21:04:17.528Z,40.20
2023-01-04T21:06:45.592Z,40.60
2023-01-04T21:09:13.865Z,40.50
2023-01-04T21:11:41.832Z,39.90
2023-01-04T21:14:11.727Z,40.40
2023-01-04T21:16:41.190Z,39.90
2023-01-04T21:19:09.332Z,40.50
2023-01-04T21:21:39.174Z,40.40
2023-01-04T21:24:08.045Z,40.30
2023-01-04T21:26:36.150Z,40.50
2023-01-04T21:29:04.527Z,40.70
2023-01-04T21:31:32.642Z,41.30
2023-01-04T21:34:00.687Z,40.40
2023-01-04T21:36:29.299Z,39.80
2023-01-04T21:38:59.912Z,40.50
2023-01-04T21:41:28.114Z,40.30
2023-01-04T21:43:58.407Z,40.60
2023-01-04T21:46:27.442Z,39.90
2023-01-04T21:48:59.179Z,40.10
2023-01-04T21:51:30.515Z,40.40
2023-01-04T21:54:01.478Z,40.60
2023-01-04T21:56:31.481Z,40.70
2023-01-04T21:58:59.857Z,40.20
2023-01-04T22:01:34.487Z,40.00
2023-01-04T22:04:04.148Z,40.30
2023-01-04T22:06:32.998Z,40.30
2023-01-04T22:09:02.711Z,40.30
2023-01-04T22:11:30.922Z,40.50
2023-01-04T22:13:58.848Z,40.40
2023-01-04T22:16:26.975Z,40.40
2023-01-04T22:18:55.140Z,40.40
2023-01-04T22:21:24.567Z,40.10
2023-01-04T22:23:52.857Z,40.50
2023-01-04T22:26:22.322Z,40.10
2023-01-04T22:28:50.609Z,40.50
2023-01-04T22:31:18.685Z,40.20
2023-01-04T22:33:46.819Z,40.60
2023-01-04T22:36:22.227Z,40.40
2023-01-04T22:38:51.930Z,39.90
2023-01-04T22:41:23.523Z,40.30
2023-01-04T22:43:56.703Z,40.20
2023-01-04T22:46:25.498Z,40.40
2023-01-04T22:48:53.737Z,40.30
2023-01-04T22:51:22.363Z,40.40
2023-01-04T22:53:50.364Z,40.30
2023-01-04T22:56:21.989Z,40.10
2023-01-04T22:58:55.465Z,40.20
2023-01-04T23:01:25.141Z,40.50
2023-01-04T23:03:54.464Z,40.40
2023-01-04T23:06:24.603Z,40.20
2023-01-04T23:08:57.032Z,40.10
2023-01-04T23:11:25.627Z,40.20
2023-01-04T23:13:55.480Z,40.20
2023-01-04T23:16:29.817Z,40.20
2023-01-04T23:19:00.354Z,40.30
2023-01-04T23:21:28.628Z,40.10
2023-01-04T23:23:56.641Z,40.10
2023-01-04T23:26:26.520Z,39.90
2023-01-04T23:28:56.188Z,39.70
2023-01-04T23:31:27.434Z,39.90
2023-01-04T23:33:57.744Z,40.00
2023-01-04T23:36:29.666Z,40.00
2023-01-04T23:39:00.819Z,40.00
2023-01-04T23:41:43.584Z,39.80
2023-01-04T23:44:15.786Z,39.30
2023-01-04T23:46:44.378Z,39.40
2023-01-04T23:49:13.874Z,39.50
2023-01-04T23:51:42.605Z,39.70
2023-01-04T23:54:11.193Z,39.00
2023-01-04T23:56:40.077Z,39.60
2023-01-04T23:59:08.636Z,39.40
